Lonetree, WY

2:32 PM MDT on May 25, 2015 (GMT -0600)
APRSWXNET | | Change Station
CLOSE
Current Station
Personal Weather Station
Location: Mountain View, WY
Elevation: 7111 ft
Nearby Weather Stations

Elev 7111 ft 41.23 °N, 110.37 °W | Updated 29 minutes ago

Rain
Rain
44 °F
Feels Like 42 °F
N
4
Wind Variable Wind from NE
Gusts 0.0 mph

Today
High -- | Low -- °F
--% Chance of Precip.
Yesterday
High -- | Low -- °F
Precip. -- in
5:54 AM 8:40 PM
Waxing Crescent, 51% visible
Pressure 30.07 in
Visibility 10.0 miles
Clouds Scattered Clouds 1600 ft
Scattered Clouds 2300 ft
Mostly Cloudy 4100 ft
Windchill 42 °F
Dew Point 40 °F
Humidity 85%
Rainfall in
Snow Depth Not available.
UV 7 out of 12
Pollen 6.10 out of 12
Air Quality Not available.
Flu Activity Sporadic
METAR KFBR 252010Z AUTO 28009KT 10SM VCTS SCT016 SCT023 BKN041 12/09 A3007 RMK AO2 LTG DSNT W THRU NE T01230087

More Conditions Fewer Conditions

Pressure 30.07 in
Visibility 10.0 miles
Clouds Scattered Clouds 1600 ft
Scattered Clouds 2300 ft
Mostly Cloudy 4100 ft
Windchill 42 °F
Dew Point 40 °F
Humidity 85%
Rainfall in
Snow Depth Not available.
UV 7 out of 12
Pollen 6.10 out of 12
Air Quality Not available.
Flu Activity Sporadic
METAR KFBR 252010Z AUTO 28009KT 10SM VCTS SCT016 SCT023 BKN041 12/09 A3007 RMK AO2 LTG DSNT W THRU NE T01230087

More Conditions Fewer Conditions

Nowcast | as of 1:53 PM MDT on May 25, 2015

Showers and isolated thunderstorms continue to develop and then dissipate over portions of northern and central Utah. They are moving southeast at about 15 mph. The strongest storms were located in northern Cache County and just west of Utah Lake. Expect occasional cloud to ground lightning...locally brief heavy rain...gusty winds and small hail with the strongest storms.

×

10-Day Weather Forecast

Almanac

Astronomy

May. 25, 2015 Rise Set
Actual Time
Civil Twilight
Nautical Twilight
Astronomical Twilight
Moon
Length of Visible Light
Length of Day
Tomorrow will be .
, % of the Moon is Illuminated

Today's Extremes

State Highs State Lows

Community

WunderPhotos

Upload Photos

1,824,120 photos uploaded!

WunderBlogs® & News

Nearby

Air Quality

  Air Quality AQ Index Pollutant
Not available.

Snow Depth

Station Depth Elevation

Earthquake Activity

City Distance Mag. Time & Date
Minimum magnitude displayed is 2.5.

Coastal Water Temperatures

Place Temperature

Stations

Nearby Weather Stations

Station Location Temp. Windchill Dew Point Humidity Wind Precip. Elev Updated Type